createdAt,value
2019-05-21T00:01:45.445Z,95628.36
2019-05-21T00:04:27.844Z,95633.70
2019-05-21T00:06:48.051Z,95631.66
2019-05-21T00:09:18.298Z,95629.56
2019-05-21T00:11:48.430Z,95626.72
2019-05-21T00:14:18.772Z,95629.97
2019-05-21T00:16:49.220Z,95635.14
2019-05-21T00:19:19.510Z,95631.63
2019-05-21T00:21:50.148Z,95636.52
2019-05-21T00:24:20.521Z,95633.98
2019-05-21T00:26:50.871Z,95635.91
2019-05-21T00:30:14.571Z,95638.98
2019-05-21T00:33:38.529Z,95632.30
2019-05-21T00:37:04.063Z,95635.12
2019-05-21T00:40:27.729Z,95635.52
2019-05-21T00:42:58.104Z,95640.88
2019-05-21T00:45:28.602Z,95636.03
2019-05-21T00:47:58.771Z,95634.55
2019-05-21T00:50:29.158Z,95635.86
2019-05-21T00:52:59.525Z,95633.91
2019-05-21T00:55:29.970Z,95636.48
2019-05-21T00:58:00.282Z,95635.03
2019-05-21T01:00:30.768Z,95629.05
2019-05-21T01:03:00.938Z,95635.55
2019-05-21T01:05:31.439Z,95634.41
2019-05-21T01:08:01.937Z,95641.52
2019-05-21T01:10:32.360Z,95638.13
2019-05-21T01:13:02.765Z,95631.50
2019-05-21T01:15:33.023Z,95626.36
2019-05-21T01:18:03.544Z,95633.15
2019-05-21T01:20:34.123Z,95637.09
2019-05-21T01:23:05.044Z,95631.95
2019-05-21T01:25:35.243Z,95631.64
2019-05-21T01:28:05.623Z,95635.56
2019-05-21T01:30:36.206Z,95638.31
2019-05-21T01:33:06.584Z,95638.02
2019-05-21T01:35:36.749Z,95644.00
2019-05-21T01:38:07.014Z,95639.95
2019-05-21T01:40:37.324Z,95646.26
2019-05-21T01:43:07.654Z,95641.25
2019-05-21T01:45:38.166Z,95644.98
2019-05-21T01:48:10.308Z,95639.97
2019-05-21T01:50:40.775Z,95646.95
2019-05-21T01:53:11.174Z,95643.86
2019-05-21T01:55:41.605Z,95644.07
2019-05-21T01:58:12.046Z,95643.73
2019-05-21T02:00:42.622Z,95643.59
2019-05-21T02:03:13.052Z,95650.73
2019-05-21T02:05:43.437Z,95651.08
2019-05-21T02:08:13.697Z,95652.03
2019-05-21T02:10:44.022Z,95652.02
2019-05-21T02:13:14.045Z,95649.45
2019-05-21T02:15:44.250Z,95657.39
2019-05-21T02:18:14.322Z,95653.23
2019-05-21T02:20:44.448Z,95650.51
2019-05-21T02:23:14.518Z,95650.23
2019-05-21T02:25:44.489Z,95648.61
2019-05-21T02:28:14.661Z,95653.98
2019-05-21T02:30:44.786Z,95657.71
2019-05-21T02:33:14.904Z,95655.78
2019-05-21T02:35:54.278Z,95654.51
2019-05-21T02:38:17.339Z,95656.48
2019-05-21T02:40:47.452Z,95652.63
2019-05-21T02:43:17.535Z,95649.73
2019-05-21T02:45:47.642Z,95649.45
2019-05-21T02:48:17.912Z,95649.92
2019-05-21T02:50:48.561Z,95651.73
2019-05-21T02:53:18.856Z,95651.10
2019-05-21T02:55:49.094Z,95649.83
2019-05-21T02:58:19.290Z,95654.84
2019-05-21T03:00:59.283Z,95652.41
2019-05-21T03:03:30.829Z,95658.42
2019-05-21T03:06:13.106Z,95657.78
2019-05-21T03:08:33.103Z,95665.72
2019-05-21T03:11:03.673Z,95661.67
2019-05-21T03:13:33.885Z,95665.70
2019-05-21T03:16:04.060Z,95669.45
2019-05-21T03:18:34.372Z,95677.52
2019-05-21T03:21:04.594Z,95676.89
2019-05-21T03:23:34.753Z,95671.72
2019-05-21T03:26:04.884Z,95662.52
2019-05-21T03:28:35.214Z,95666.23
2019-05-21T03:31:05.544Z,95672.86
2019-05-21T03:33:35.879Z,95673.66
2019-05-21T03:36:06.187Z,95672.38
2019-05-21T03:38:36.597Z,95676.91
2019-05-21T03:41:06.856Z,95673.84
2019-05-21T03:43:37.306Z,95680.29
2019-05-21T03:46:07.570Z,95682.73
2019-05-21T03:48:37.797Z,95680.29
2019-05-21T03:51:07.951Z,95682.72
2019-05-21T03:53:38.104Z,95691.90
2019-05-21T03:56:08.607Z,95692.38
2019-05-21T03:58:38.828Z,95702.08
2019-05-21T04:01:09.017Z,95704.48
2019-05-21T04:03:39.407Z,95702.56
2019-05-21T04:06:09.618Z,95708.22
2019-05-21T04:08:39.804Z,95701.91
2019-05-21T04:11:09.869Z,95707.57
2019-05-21T04:13:43.049Z,95705.63
2019-05-21T04:16:20.652Z,95706.47
2019-05-21T04:18:55.469Z,95705.50
2019-05-21T04:21:25.623Z,95712.59
2019-05-21T04:23:55.711Z,95713.56
2019-05-21T04:26:25.757Z,95710.16
2019-05-21T04:28:56.273Z,95717.75
2019-05-21T04:31:26.307Z,95720.81
2019-05-21T04:33:56.454Z,95717.56
2019-05-21T04:36:45.613Z,95716.91
2019-05-21T04:39:15.813Z,95717.54
2019-05-21T04:41:45.878Z,95712.87
2019-05-21T04:44:15.937Z,95717.87
2019-05-21T04:46:45.963Z,95721.05
2019-05-21T04:49:15.827Z,95719.13
2019-05-21T04:51:45.810Z,95724.44
2019-05-21T04:54:15.789Z,95729.45
2019-05-21T04:56:45.681Z,95720.75
2019-05-21T04:59:15.742Z,95726.24
2019-05-21T05:01:45.901Z,95720.42
2019-05-21T05:04:21.223Z,95727.38
2019-05-21T05:06:47.456Z,95733.67
2019-05-21T05:09:17.369Z,95733.52
2019-05-21T05:11:47.287Z,95732.23
2019-05-21T05:14:17.190Z,95737.09
2019-05-21T05:16:47.265Z,95729.17
2019-05-21T05:19:17.646Z,95733.21
2019-05-21T05:21:47.635Z,95731.77
2019-05-21T05:24:17.630Z,95735.36
2019-05-21T05:26:47.490Z,95735.69
2019-05-21T05:29:17.510Z,95736.97
2019-05-21T05:31:47.463Z,95737.31
2019-05-21T05:34:17.610Z,95733.28
2019-05-21T05:36:47.485Z,95735.89
2019-05-21T05:39:17.629Z,95736.22
2019-05-21T05:41:47.494Z,95741.22
2019-05-21T05:44:17.647Z,95735.91
2019-05-21T05:46:47.628Z,95733.20
2019-05-21T05:49:22.976Z,95737.22
2019-05-21T05:51:53.049Z,95726.43
2019-05-21T05:54:23.104Z,95722.72
2019-05-21T05:56:53.160Z,95725.17
2019-05-21T05:59:23.226Z,95725.34
2019-05-21T06:01:53.256Z,95725.19
2019-05-21T06:04:23.665Z,95723.56
2019-05-21T06:06:54.731Z,95731.97
2019-05-21T06:09:24.880Z,95721.64
2019-05-21T06:11:55.102Z,95730.70
2019-05-21T06:14:27.921Z,95735.07
2019-05-21T06:16:57.898Z,95724.13
2019-05-21T06:19:27.781Z,95727.83
2019-05-21T06:21:57.686Z,95726.69
2019-05-21T06:24:28.255Z,95730.42
2019-05-21T06:26:58.136Z,95733.00
2019-05-21T06:29:28.014Z,95725.27
2019-05-21T06:31:57.903Z,95731.59
2019-05-21T06:34:28.039Z,95727.89
2019-05-21T06:36:57.995Z,95746.48
2019-05-21T06:39:28.090Z,95746.81
2019-05-21T06:41:57.953Z,95743.75
2019-05-21T06:44:27.906Z,95748.31
2019-05-21T06:46:57.997Z,95751.06
2019-05-21T06:49:28.011Z,95757.50
2019-05-21T06:51:58.322Z,95754.94
2019-05-21T06:54:28.650Z,95756.42
2019-05-21T06:56:58.868Z,95757.20
2019-05-21T06:59:29.240Z,95754.17
2019-05-21T07:01:59.427Z,95748.50
2019-05-21T07:04:29.681Z,95742.73
2019-05-21T07:07:00.099Z,95738.23
2019-05-21T07:09:30.293Z,95743.42
2019-05-21T07:12:00.592Z,95748.43
2019-05-21T07:14:31.234Z,95747.79
2019-05-21T07:17:17.404Z,95749.89
2019-05-21T07:20:03.679Z,95744.59
2019-05-21T07:22:47.170Z,95747.34
2019-05-21T07:25:17.844Z,95744.23
2019-05-21T07:27:59.267Z,95753.91
2019-05-21T07:30:29.571Z,95748.77
2019-05-21T07:33:04.929Z,95748.75
2019-05-21T07:35:35.751Z,95743.95
2019-05-21T07:38:20.648Z,95749.59
2019-05-21T07:41:02.677Z,95755.39
2019-05-21T07:43:30.330Z,95752.04
2019-05-21T07:46:00.846Z,95754.77
2019-05-21T07:48:36.275Z,95743.64
2019-05-21T07:51:09.432Z,95742.68
2019-05-21T07:53:40.714Z,95741.06
2019-05-21T07:56:16.175Z,95744.47
2019-05-21T07:58:46.392Z,95747.38
2019-05-21T08:01:16.633Z,95746.73
2019-05-21T08:03:48.547Z,95744.16
2019-05-21T08:06:18.950Z,95749.00
2019-05-21T08:08:51.575Z,95750.76
2019-05-21T08:11:21.891Z,95754.80
2019-05-21T08:13:52.341Z,95750.28
2019-05-21T08:16:22.520Z,95756.41
2019-05-21T08:18:52.790Z,95747.68
2019-05-21T08:21:22.940Z,95742.86
2019-05-21T08:23:52.929Z,95740.57
2019-05-21T08:26:23.430Z,95732.33
2019-05-21T08:28:53.569Z,95735.55
2019-05-21T08:31:23.779Z,95741.02
2019-05-21T08:33:54.297Z,95744.56
2019-05-21T08:36:24.407Z,95742.78
2019-05-21T08:38:54.843Z,95742.45
2019-05-21T08:41:25.250Z,95731.95
2019-05-21T08:43:55.483Z,95734.81
2019-05-21T08:46:29.607Z,95747.41
2019-05-21T08:48:59.663Z,95751.45
2019-05-21T08:51:29.624Z,95753.02
2019-05-21T08:53:59.483Z,95758.52
2019-05-21T08:56:29.962Z,95767.52
2019-05-21T08:59:01.498Z,95774.78
2019-05-21T09:01:33.954Z,95778.98
2019-05-21T09:04:04.206Z,95781.72
2019-05-21T09:06:34.723Z,95779.62
2019-05-21T09:09:50.013Z,95785.25
2019-05-21T09:12:47.522Z,95787.18
2019-05-21T09:20:16.908Z,95795.72
2019-05-21T09:23:17.309Z,95802.98
2019-05-21T09:32:37.195Z,95801.05
2019-05-21T09:38:10.453Z,95820.72
2019-05-21T09:40:42.138Z,95815.38
2019-05-21T09:43:12.345Z,95825.19
2019-05-21T09:45:45.751Z,95825.47
2019-05-21T09:48:15.939Z,95828.99
2019-05-21T09:50:46.466Z,95835.75
2019-05-21T09:53:16.744Z,95832.02
2019-05-21T09:55:47.009Z,95832.14
2019-05-21T09:58:25.252Z,95836.02
2019-05-21T10:01:17.383Z,95839.70
2019-05-21T10:03:51.671Z,95842.27
2019-05-21T10:06:24.587Z,95844.00
2019-05-21T10:08:55.551Z,95844.17
2019-05-21T10:11:27.451Z,95851.27
2019-05-21T10:13:57.546Z,95853.17
2019-05-21T10:16:28.156Z,95851.22
2019-05-21T10:18:58.449Z,95857.54
2019-05-21T10:21:31.970Z,95862.84
2019-05-21T10:24:02.337Z,95866.22
2019-05-21T10:26:32.483Z,95878.17
2019-05-21T10:29:02.590Z,95876.38
2019-05-21T10:31:32.605Z,95878.80
2019-05-21T10:34:02.737Z,95880.40
2019-05-21T10:36:32.967Z,95886.84
2019-05-21T10:39:04.833Z,95891.67
2019-05-21T10:41:35.213Z,95897.15
2019-05-21T10:44:05.466Z,95901.84
2019-05-21T10:46:35.597Z,95896.83
2019-05-21T10:49:06.173Z,95902.00
2019-05-21T10:51:36.113Z,95901.52
2019-05-21T10:54:06.829Z,95901.34
2019-05-21T10:56:47.511Z,95910.38
2019-05-21T10:59:09.203Z,95906.53
2019-05-21T11:01:58.317Z,95909.44
2019-05-21T11:04:59.328Z,95916.86
2019-05-21T11:07:29.854Z,95916.08
2019-05-21T11:09:59.970Z,95916.22
2019-05-21T11:12:30.044Z,95922.03
2019-05-21T11:15:00.302Z,95927.37
2019-05-21T11:17:30.414Z,95926.72
2019-05-21T11:20:00.453Z,95941.41
2019-05-21T11:22:30.448Z,95945.91
2019-05-21T11:25:47.508Z,95946.74
2019-05-21T11:28:42.446Z,95949.52
2019-05-21T11:32:01.889Z,95948.23
2019-05-21T11:34:45.774Z,95954.05
2019-05-21T11:37:15.980Z,95957.42
2019-05-21T11:39:49.303Z,95958.86
2019-05-21T11:42:20.956Z,95962.22
2019-05-21T11:45:03.923Z,95965.61
2019-05-21T11:47:59.712Z,95970.33
2019-05-21T11:50:29.921Z,95968.87
2019-05-21T11:52:59.984Z,95970.48
2019-05-21T11:55:30.155Z,95975.48
2019-05-21T11:58:00.148Z,95973.69
2019-05-21T12:00:31.034Z,95981.27
2019-05-21T12:03:03.177Z,95978.37
2019-05-21T12:05:35.439Z,95983.06
2019-05-21T12:08:05.796Z,95983.52
2019-05-21T12:10:36.294Z,95987.08
2019-05-21T12:13:09.463Z,95989.33
2019-05-21T12:15:40.746Z,95990.61
2019-05-21T12:18:10.851Z,95995.28
2019-05-21T12:20:46.074Z,95997.39
2019-05-21T12:23:16.875Z,95997.55
2019-05-21T12:25:47.260Z,95998.50
2019-05-21T12:28:19.724Z,96004.17
2019-05-21T12:30:57.521Z,96003.52
2019-05-21T12:33:35.835Z,96007.37
2019-05-21T12:36:09.602Z,96006.04
2019-05-21T12:38:46.348Z,96009.56
2019-05-21T12:41:16.598Z,96017.95
2019-05-21T12:44:02.133Z,96016.50
2019-05-21T12:46:37.802Z,96026.66
2019-05-21T12:49:10.155Z,96021.15
2019-05-21T12:51:42.370Z,96025.01
2019-05-21T12:54:13.485Z,96026.12
2019-05-21T12:56:43.521Z,96026.95
2019-05-21T12:59:25.510Z,96036.98
2019-05-21T13:02:06.684Z,96035.83
2019-05-21T13:04:47.986Z,96042.47
2019-05-21T13:07:19.932Z,96044.59
2019-05-21T13:09:50.651Z,96047.51
2019-05-21T13:12:20.647Z,96048.97
2019-05-21T13:14:54.387Z,96054.28
2019-05-21T13:17:24.796Z,96048.45
2019-05-21T13:20:07.314Z,96059.13
2019-05-21T13:22:37.162Z,96057.69
2019-05-21T13:25:08.839Z,96063.98
2019-05-21T13:27:39.010Z,96074.97
2019-05-21T13:30:10.188Z,96071.41
2019-05-21T13:32:43.646Z,96075.31
2019-05-21T13:35:13.088Z,96083.23
2019-05-21T13:39:05.409Z,96088.93
2019-05-21T13:41:36.521Z,96088.92
2019-05-21T13:44:24.834Z,96096.86
2019-05-21T13:48:38.873Z,96095.06
2019-05-21T13:50:14.748Z,96094.91
2019-05-21T13:53:03.631Z,96106.55
2019-05-21T13:55:34.248Z,96107.68
2019-05-21T13:58:05.060Z,96111.09
2019-05-21T14:00:45.381Z,96112.86
2019-05-21T14:03:16.445Z,96112.38
2019-05-21T14:05:49.634Z,96115.13
2019-05-21T14:08:23.601Z,96115.63
2019-05-21T14:10:57.491Z,96122.44
2019-05-21T14:13:33.306Z,96119.34
2019-05-21T14:16:14.636Z,96126.80
2019-05-21T14:19:02.010Z,96118.73
2019-05-21T14:21:39.453Z,96122.47
2019-05-21T14:24:09.635Z,96129.41
2019-05-21T14:26:41.052Z,96130.73
2019-05-21T14:29:12.787Z,96135.57
2019-05-21T14:31:54.326Z,96136.37
2019-05-21T14:35:01.003Z,96141.38
2019-05-21T14:37:22.008Z,96138.36
2019-05-21T14:39:52.177Z,96149.85
2019-05-21T14:42:22.269Z,96153.57
2019-05-21T14:44:52.541Z,96156.00
2019-05-21T14:47:25.969Z,96155.98
2019-05-21T14:50:03.890Z,96166.51
2019-05-21T14:52:53.328Z,96161.50
2019-05-21T14:55:31.634Z,96166.98
2019-05-21T14:58:16.893Z,96169.25
2019-05-21T15:00:56.949Z,96172.16
2019-05-21T15:03:29.375Z,96175.56
2019-05-21T15:06:05.399Z,96178.00
2019-05-21T15:09:05.348Z,96181.23
2019-05-21T15:11:42.432Z,96184.80
2019-05-21T15:14:22.447Z,96177.52
2019-05-21T15:16:52.872Z,96188.33
2019-05-21T15:19:23.301Z,96183.98
2019-05-21T15:22:01.689Z,96179.45
2019-05-21T15:24:35.458Z,96189.94
2019-05-21T15:27:07.258Z,96187.03
2019-05-21T15:29:37.557Z,96191.03
2019-05-21T15:32:08.065Z,96187.63
2019-05-21T15:34:38.155Z,96192.17
2019-05-21T15:37:08.698Z,96191.98
2019-05-21T15:39:42.744Z,96196.19
2019-05-21T15:42:13.037Z,96196.52
2019-05-21T15:44:43.483Z,96201.07
2019-05-21T15:47:13.834Z,96201.73
2019-05-21T15:49:44.002Z,96206.55
2019-05-21T15:52:16.841Z,96212.39
2019-05-21T15:54:46.907Z,96215.77
2019-05-21T15:57:17.230Z,96218.20
2019-05-21T15:59:48.694Z,96219.19
2019-05-21T16:02:18.923Z,96224.08
2019-05-21T16:04:51.975Z,96224.06
2019-05-21T16:07:27.531Z,96225.84
2019-05-21T16:09:57.048Z,96223.27
2019-05-21T16:12:36.364Z,96227.97
2019-05-21T16:15:07.344Z,96226.67
2019-05-21T16:17:38.181Z,96226.52
2019-05-21T16:20:10.379Z,96222.80
2019-05-21T16:22:46.598Z,96228.94
2019-05-21T16:25:17.268Z,96231.20
2019-05-21T16:27:47.509Z,96230.72
2019-05-21T16:30:17.962Z,96230.39
2019-05-21T16:32:51.598Z,96238.17
2019-05-21T16:35:22.143Z,96238.66
2019-05-21T16:37:52.306Z,96242.06
2019-05-21T16:40:22.555Z,96243.86
2019-05-21T16:42:52.883Z,96246.13
2019-05-21T16:45:23.305Z,96242.23
2019-05-21T16:47:53.671Z,96247.07
2019-05-21T16:50:23.755Z,96240.60
2019-05-21T16:52:55.093Z,96246.45
2019-05-21T16:55:29.582Z,96248.55
2019-05-21T16:57:59.993Z,96251.78
2019-05-21T17:00:30.420Z,96252.27
2019-05-21T17:03:00.604Z,96256.96
2019-05-21T17:05:30.907Z,96259.37
2019-05-21T17:08:02.478Z,96261.97
2019-05-21T17:10:57.816Z,96261.31
2019-05-21T17:13:39.316Z,96261.17
2019-05-21T17:16:09.488Z,96267.31
2019-05-21T17:18:44.000Z,96269.25
2019-05-21T17:21:15.180Z,96273.45
2019-05-21T17:23:45.282Z,96278.62
2019-05-21T17:26:15.413Z,96274.42
2019-05-21T17:28:45.390Z,96276.84
2019-05-21T17:31:15.424Z,96279.75
2019-05-21T17:33:45.408Z,96278.28
2019-05-21T17:36:18.388Z,96283.31
2019-05-21T17:38:48.454Z,96284.59
2019-05-21T17:41:18.326Z,96295.59
2019-05-21T17:43:48.400Z,96302.21
2019-05-21T17:46:18.534Z,96296.73
2019-05-21T17:48:48.624Z,96296.41
2019-05-21T17:51:18.573Z,96297.70
2019-05-21T17:53:48.525Z,96300.27
2019-05-21T17:56:18.910Z,96300.27
2019-05-21T17:58:51.040Z,96300.30
2019-05-21T18:01:21.447Z,96303.35
2019-05-21T18:03:51.706Z,96310.95
2019-05-21T18:06:21.855Z,96307.27
2019-05-21T18:08:52.071Z,96314.84
2019-05-21T18:11:22.312Z,96317.41
2019-05-21T18:13:52.599Z,96322.73
2019-05-21T18:16:23.104Z,96322.77
2019-05-21T18:19:01.328Z,96324.70
2019-05-21T18:24:40.788Z,96331.34
2019-05-21T19:16:50.308Z,96400.75
2019-05-21T19:20:18.497Z,96399.77
2019-05-21T19:26:40.162Z,96410.45
2019-05-21T19:29:50.104Z,96415.77
2019-05-21T19:32:54.024Z,96418.36
2019-05-21T19:35:40.682Z,96423.38
2019-05-21T19:46:46.465Z,96424.84
2019-05-21T19:50:05.764Z,96431.30
2019-05-21T19:53:15.061Z,96433.71
2019-05-21T19:56:38.277Z,96439.53
2019-05-21T20:02:29.239Z,96446.66
2019-05-21T20:05:32.179Z,96448.09
2019-05-21T20:08:20.358Z,96461.35
2019-05-21T20:11:31.661Z,96455.69
2019-05-21T20:17:28.612Z,96464.58
2019-05-21T20:20:08.713Z,96470.88
2019-05-21T20:22:54.614Z,96470.23
2019-05-21T20:25:29.974Z,96466.19
2019-05-21T20:28:13.214Z,96471.05
2019-05-21T20:31:02.727Z,96473.63
2019-05-21T20:33:36.853Z,96477.69
2019-05-21T20:36:13.105Z,96476.70
2019-05-21T20:38:53.026Z,96477.67
2019-05-21T20:41:29.047Z,96481.23
2019-05-21T20:44:33.067Z,96486.89
2019-05-21T20:47:17.953Z,96485.58
2019-05-21T20:52:56.414Z,96488.48
2019-05-21T20:55:36.920Z,96490.77
2019-05-21T21:20:10.972Z,96490.58
2019-05-21T21:22:41.216Z,96494.30
2019-05-21T21:25:12.015Z,96496.91
2019-05-21T21:27:42.250Z,96499.80
2019-05-21T21:30:12.528Z,96497.70
2019-05-21T21:32:42.569Z,96503.03
2019-05-21T21:35:13.907Z,96503.84
2019-05-21T21:37:43.957Z,96504.64
2019-05-21T21:40:16.832Z,96504.50
2019-05-21T21:42:46.854Z,96511.11
2019-05-21T21:45:17.158Z,96506.58
2019-05-21T21:47:47.171Z,96512.25
2019-05-21T21:50:18.425Z,96509.66
2019-05-21T21:52:48.712Z,96510.15
2019-05-21T21:55:18.803Z,96510.80
2019-05-21T21:57:48.708Z,96512.72
2019-05-21T22:01:28.067Z,96511.42
2019-05-21T22:04:02.072Z,96510.30
2019-05-21T22:06:36.419Z,96512.25
2019-05-21T22:09:12.115Z,96513.70
2019-05-21T22:11:42.151Z,96513.69
2019-05-21T22:14:13.196Z,96515.95
2019-05-21T22:16:44.320Z,96523.89
2019-05-21T22:19:15.816Z,96522.44
2019-05-21T22:21:46.296Z,96514.84
2019-05-21T22:24:16.323Z,96516.30
2019-05-21T22:26:47.262Z,96517.11
2019-05-21T22:29:17.337Z,96517.59
2019-05-21T22:31:47.443Z,96512.41
2019-05-21T22:34:18.837Z,96521.12
2019-05-21T22:36:48.899Z,96516.63
2019-05-21T22:39:24.018Z,96515.66
2019-05-21T22:41:54.618Z,96519.20
2019-05-21T22:44:24.661Z,96520.01
2019-05-21T22:46:54.706Z,96516.61
2019-05-21T22:49:25.653Z,96518.22
2019-05-21T22:51:55.793Z,96519.20
2019-05-21T22:54:25.823Z,96514.04
2019-05-21T22:56:55.779Z,96515.16
2019-05-21T22:59:25.695Z,96514.34
2019-05-21T23:01:57.636Z,96522.45
2019-05-21T23:04:27.620Z,96519.22
2019-05-21T23:06:57.657Z,96524.20
2019-05-21T23:09:27.838Z,96518.41
2019-05-21T23:11:57.729Z,96524.86
2019-05-21T23:14:28.803Z,96522.59
2019-05-21T23:16:59.119Z,96520.48
2019-05-21T23:19:29.417Z,96522.94
2019-05-21T23:22:01.029Z,96522.92
2019-05-21T23:24:32.536Z,96527.11
2019-05-21T23:27:02.496Z,96522.42
2019-05-21T23:29:33.598Z,96528.09
2019-05-21T23:32:04.466Z,96525.50
2019-05-21T23:34:34.441Z,96526.48
2019-05-21T23:37:05.328Z,96525.52
2019-05-21T23:39:37.796Z,96527.44
2019-05-21T23:42:08.676Z,96530.83
2019-05-21T23:44:38.789Z,96530.03
2019-05-21T23:47:12.779Z,96532.13
2019-05-21T23:49:42.857Z,96530.19
2019-05-21T23:52:12.866Z,96528.26
2019-05-21T23:54:42.805Z,96532.14
2019-05-21T23:57:20.571Z,96536.51
2019-05-21T23:59:51.145Z,96532.46
